Time;durP1;ratioP1;P1;durP2;ratioP2;P2;SDS_P1;SDS_P2;PMS_P1;PMS_P2;Temp;Humidity;BMP_temperature;BMP_pressure;BME280_temperature;BME280_humidity;BME280_pressure;Samples;Min_cycle;Max_cycle;Signal;HPM_P1;HPM_P2
2021/11/28 00:02:26;;;;;;;51.33;17.60;;;0.80;99.90;;;-1.05;100.00;98730.81;4915467;28;20066;-81
2021/11/28 00:04:56;;;;;;;51.55;16.52;;;0.80;99.90;;;-1.09;100.00;98736.97;4908719;28;20568;-81
2021/11/28 00:10:48;;;;;;;38.70;14.02;;;;;;;-1.13;100.00;98738.81;4898697;28;20095;-84
2021/11/28 00:16:02;;;;;;;43.47;15.65;;;0.80;99.90;;;-1.13;100.00;98738.81;4845180;28;20039;-79
2021/11/28 00:18:30;;;;;;;36.83;14.57;;;0.70;99.90;;;-1.14;100.00;98724.22;4907025;28;20068;-80
2021/11/28 00:20:56;;;;;;;40.47;14.82;;;0.80;99.90;;;-1.12;100.00;98722.44;4942411;28;20034;-78
2021/11/28 00:23:25;;;;;;;46.97;15.07;;;0.80;99.90;;;-1.13;100.00;98728.47;4949235;28;20045;-77
2021/11/28 00:25:58;;;;;;;39.63;13.95;;;0.70;99.90;;;-1.14;100.00;98725.97;4931228;28;20042;-80
2021/11/28 00:28:25;;;;;;;38.03;13.05;;;0.80;99.90;;;-1.15;100.00;98726.84;4881795;28;20045;-80
2021/11/28 00:31:00;;;;;;;31.20;12.55;;;;;;;-1.14;100.00;98731.13;4908070;28;20038;-79
2021/11/28 00:33:26;;;;;;;33.88;12.73;;;;;;;-1.08;100.00;98734.34;4910896;28;20532;-80
2021/11/28 00:35:52;;;;;;;26.85;11.32;;;0.80;99.90;;;-1.10;100.00;98723.22;4921995;28;20039;-80
2021/11/28 00:38:25;;;;;;;37.40;12.20;;;;;;;-1.09;100.00;98731.81;4884204;28;20509;-79
2021/11/28 00:40:52;;;;;;;31.45;12.45;;;0.80;99.90;;;-1.04;100.00;98738.53;4918701;28;20145;-79
2021/11/28 00:43:19;;;;;;;30.25;11.63;;;0.80;99.90;;;-1.10;100.00;98730.97;4908589;28;20088;-81
2021/11/28 00:46:09;;;;;;;28.23;11.38;;;0.90;99.90;;;-1.08;100.00;98736.06;4880397;28;20035;-81
2021/11/28 00:48:42;;;;;;;28.48;11.10;;;0.80;99.90;;;-1.10;100.00;98715.47;4918193;28;20038;-82
2021/11/28 00:53:45;;;;;;;28.25;11.35;;;0.90;99.90;;;-1.04;100.00;98743.69;4896166;28;20038;-77
2021/11/28 00:56:12;;;;;;;36.72;12.85;;;0.90;99.90;;;-1.06;100.00;98740.31;4942129;28;20038;-77
2021/11/28 00:58:38;;;;;;;29.10;11.65;;;0.80;99.90;;;-1.06;100.00;98735.16;4930894;28;20098;-77
2021/11/28 01:01:05;;;;;;;28.67;10.60;;;0.80;99.90;;;-1.12;100.00;98743.09;4933875;28;20026;-77
2021/11/28 01:03:32;;;;;;;29.85;12.07;;;0.70;99.90;;;-1.16;100.00;98738.06;4920255;28;20028;-78
2021/11/28 01:05:58;;;;;;;31.75;11.85;;;0.70;99.90;;;-1.15;100.00;98744.91;4923867;28;20106;-77
2021/11/28 01:08:24;;;;;;;33.05;10.85;;;0.70;99.90;;;-1.20;100.00;98732.13;4915547;28;20081;-77
2021/11/28 01:10:50;;;;;;;30.85;10.07;;;0.70;99.90;;;-1.19;100.00;98720.91;4897708;28;20035;-77
2021/11/28 01:13:18;;;;;;;30.98;10.50;;;0.70;99.90;;;-1.10;100.00;98750.78;4925604;28;20109;-78
2021/11/28 01:15:44;;;;;;;25.40;10.50;;;0.70;99.90;;;-1.15;100.00;98748.34;4924236;28;20018;-77
2021/11/28 01:18:11;;;;;;;25.85;10.85;;;0.70;99.90;;;-1.17;100.00;98751.84;4923456;28;20446;-76
2021/11/28 01:20:37;;;;;;;23.55;10.13;;;0.70;99.90;;;-1.20;100.00;98750.22;4952504;28;20046;-79
2021/11/28 01:23:03;;;;;;;28.92;9.95;;;0.60;99.90;;;-1.21;100.00;98747.69;4980420;28;20038;-77
2021/11/28 01:25:36;;;;;;;31.77;11.38;;;0.60;99.90;;;-1.23;100.00;98750.31;4945665;28;20076;-78
2021/11/28 01:28:03;;;;;;;26.70;9.90;;;0.60;99.90;;;-1.23;100.00;98745.16;4915493;28;20399;-78
2021/11/28 01:30:30;;;;;;;25.63;10.13;;;0.60;99.90;;;-1.24;100.00;98705.56;4924029;28;20030;-77
2021/11/28 01:33:01;;;;;;;26.20;10.00;;;0.60;99.90;;;-1.24;100.00;98757.22;4942234;28;20100;-78
2021/11/28 01:35:27;;;;;;;27.42;10.00;;;0.60;99.90;;;-1.24;100.00;98767.53;4935903;28;20548;-78
2021/11/28 01:37:53;;;;;;;26.83;10.20;;;0.60;99.90;;;-1.23;100.00;98768.41;4943044;28;20059;-78
2021/11/28 01:40:21;;;;;;;27.10;10.85;;;0.60;99.90;;;-1.24;100.00;98766.69;4980837;28;20038;-78
2021/11/28 01:42:55;;;;;;;24.98;9.73;;;0.60;99.90;;;-1.24;100.00;98766.69;4963457;28;20430;-79
2021/11/28 01:45:28;;;;;;;33.13;10.82;;;0.60;99.90;;;-1.22;100.00;98764.91;4883085;28;20052;-78
2021/11/28 01:47:58;;;;;;;25.20;9.57;;;0.60;99.90;;;-1.25;100.00;98752.94;4943524;28;20030;-78
2021/11/28 01:50:29;;;;;;;30.05;10.73;;;0.60;99.90;;;-1.22;100.00;98754.59;4958876;28;20030;-78
2021/11/28 01:52:56;;;;;;;32.42;10.57;;;0.60;99.90;;;-1.25;100.00;98757.28;4907480;28;20595;-77
2021/11/28 01:55:33;;;;;;;31.85;10.93;;;0.60;99.90;;;-1.29;100.00;98753.94;4898206;28;20790;-78
2021/11/28 01:58:10;;;;;;;24.90;8.80;;;0.60;99.90;;;-1.24;100.00;98761.53;4865523;28;20573;-78
2021/11/28 02:00:51;;;;;;;30.00;11.40;;;0.60;99.90;;;-1.29;100.00;98753.94;4851696;28;20548;-77
2021/11/28 02:03:18;;;;;;;28.92;9.40;;;0.60;99.90;;;-1.31;100.00;98752.28;4936471;28;20029;-78
2021/11/28 02:05:51;;;;;;;35.47;11.77;;;0.60;99.90;;;-1.27;100.00;98751.31;4920900;28;20168;-78
2021/11/28 02:08:18;;;;;;;25.45;9.85;;;0.60;99.90;;;-1.25;100.00;98765.03;4925067;28;20041;-77
2021/11/28 02:10:46;;;;;;;28.63;10.50;;;0.60;99.90;;;-1.29;100.00;98760.84;4918641;28;20180;-77
2021/11/28 02:13:14;;;;;;;29.42;9.65;;;0.60;99.90;;;-1.32;100.00;98750.56;4977626;28;20026;-77
2021/11/28 02:15:43;;;;;;;27.75;9.73;;;0.50;99.90;;;-1.34;100.00;98754.94;4921494;28;20022;-78
2021/11/28 02:18:10;;;;;;;28.92;10.32;;;0.50;99.90;;;-1.34;100.00;98760.97;4960994;28;20038;-77
2021/11/28 02:20:54;;;;;;;29.83;10.57;;;0.60;99.90;;;-1.31;100.00;98760.03;4921053;28;20089;-78
2021/11/28 02:23:21;;;;;;;26.38;9.60;;;0.60;99.90;;;-1.29;100.00;98761.66;4961745;28;20041;-77
2021/11/28 02:25:58;;;;;;;30.15;10.70;;;0.60;99.90;;;-1.26;100.00;98760.72;4934139;28;20046;-79
2021/11/28 02:28:24;;;;;;;27.35;9.77;;;0.60;99.90;;;-1.28;100.00;98759.94;4903881;28;20030;-77
2021/11/28 02:31:00;;;;;;;27.80;9.88;;;0.60;99.90;;;-1.21;100.00;98756.25;4939130;28;20510;-78
2021/11/28 02:33:26;;;;;;;24.67;8.70;;;0.60;99.90;;;-1.24;100.00;98752.03;4923538;28;20018;-78
2021/11/28 02:35:52;;;;;;;29.23;10.73;;;0.60;99.90;;;-1.24;100.00;98753.78;4888504;28;20034;-78
2021/11/28 02:38:24;;;;;;;26.42;10.07;;;0.60;99.90;;;-1.27;100.00;98754.72;4953708;28;20050;-79
2021/11/28 02:40:51;;;;;;;24.92;9.18;;;0.60;99.90;;;-1.28;100.00;98753.03;4905573;28;20040;-77
2021/11/28 02:43:17;;;;;;;22.70;8.40;;;0.60;99.90;;;-1.30;100.00;98744.47;4966996;28;20033;-76
2021/11/28 02:45:43;;;;;;;20.27;8.25;;;0.60;99.90;;;-1.24;100.00;98753.78;4945482;28;20041;-77
2021/11/28 02:48:16;;;;;;;26.98;9.15;;;0.60;99.90;;;-1.24;100.00;98751.19;4943474;28;20535;-78
2021/11/28 02:50:45;;;;;;;20.27;8.35;;;0.60;99.90;;;-1.25;100.00;98749.53;4919729;28;20040;-78
2021/11/28 02:53:14;;;;;;;26.25;9.13;;;0.60;99.90;;;-1.20;100.00;98757.97;4870864;28;20026;-78
2021/11/28 02:55:50;;;;;;;27.25;9.25;;;0.70;99.90;;;-1.19;100.00;98757.06;4922141;28;20050;-78
2021/11/28 02:58:22;;;;;;;20.33;7.80;;;0.60;99.90;;;-1.17;100.00;98757.88;4953652;28;20042;-78
2021/11/28 03:01:12;;;;;;;25.75;8.85;;;0.70;99.90;;;-1.17;100.00;98757.88;4956870;28;20038;-78
2021/11/28 03:03:42;;;;;;;24.85;8.75;;;0.70;99.90;;;-1.13;100.00;98750.88;4936167;28;20062;-78
2021/11/28 03:06:08;;;;;;;21.23;8.20;;;0.70;99.90;;;-1.15;100.00;98750.06;4926305;28;20048;-78
2021/11/28 03:08:34;;;;;;;25.55;8.60;;;0.70;99.90;;;-1.16;100.00;98749.25;4906738;28;20431;-78
2021/11/28 03:11:01;;;;;;;21.10;8.27;;;0.80;99.90;;;-1.13;100.00;98750.88;4920632;28;20145;-77
2021/11/28 03:13:36;;;;;;;19.75;8.50;;;0.80;99.90;;;-1.15;100.00;98753.50;4916977;28;20614;-77
2021/11/28 03:16:13;;;;;;;21.27;8.52;;;0.80;99.90;;;-1.16;100.00;98743.25;4940273;28;20027;-77
2021/11/28 03:18:39;;;;;;;22.15;7.68;;;0.80;99.90;;;-1.04;100.00;98748.88;4935624;28;21151;-79
2021/11/28 03:21:13;;;;;;;22.40;8.25;;;0.80;99.90;;;-1.12;100.00;98745.66;4958294;28;20042;-78
2021/11/28 03:23:43;;;;;;;21.42;8.52;;;0.70;99.90;;;-1.16;100.00;98738.91;4941703;28;20042;-79
2021/11/28 03:26:43;;;;;;;21.67;8.10;;;0.70;99.90;;;-1.17;100.00;98739.78;4888092;28;20411;-78
2021/11/28 03:29:17;;;;;;;16.90;7.10;;;0.70;99.90;;;-1.20;100.00;98739.88;4890158;28;20026;-78
2021/11/28 03:31:47;;;;;;;21.60;8.27;;;;;;;-1.19;100.00;98744.16;4898098;28;20036;-78
2021/11/28 03:34:16;;;;;;;21.75;8.32;;;0.80;99.90;;;-1.08;100.00;98747.28;4907348;28;20498;-78
2021/11/28 03:36:53;;;;;;;17.45;7.82;;;0.80;99.90;;;-1.13;100.00;98733.63;4951043;28;20022;-77
2021/11/28 03:39:28;;;;;;;18.60;7.20;;;0.70;99.90;;;-1.12;100.00;98745.66;4910457;28;20030;-78
2021/11/28 03:42:10;;;;;;;16.20;6.93;;;0.80;99.90;;;-1.04;100.00;98748.88;4915175;28;20046;-77
2021/11/28 03:44:37;;;;;;;18.95;7.82;;;0.80;99.90;;;-1.00;100.00;98756.50;4923654;28;20501;-78
2021/11/28 03:47:04;;;;;;;19.95;8.50;;;0.80;99.90;;;-1.10;100.00;98751.63;4966192;28;20544;-78
2021/11/28 03:49:37;;;;;;;26.52;8.73;;;0.80;99.90;;;-0.97;100.00;98761.56;4934080;28;20398;-78
2021/11/28 03:52:04;;;;;;;23.85;8.60;;;0.80;99.90;;;-1.00;100.00;98749.59;4897257;28;20406;-78
2021/11/28 03:54:30;;;;;;;26.80;9.77;;;0.80;99.90;;;-0.99;100.00;98746.13;4924361;28;20037;-78
2021/11/28 03:56:57;;;;;;;24.63;8.15;;;0.90;99.90;;;-0.97;100.00;98753.81;4894760;28;20065;-78
2021/11/28 03:59:28;;;;;;;17.25;7.97;;;0.90;99.90;;;-1.02;100.00;98741.06;4901084;28;20069;-78
2021/11/28 04:01:54;;;;;;;19.35;7.60;;;0.90;99.90;;;-0.95;100.00;98741.69;4958928;28;20796;-78
2021/11/28 04:04:21;;;;;;;23.50;7.70;;;0.90;99.90;;;-0.96;100.00;98733.13;4948913;28;20042;-77
2021/11/28 04:06:47;;;;;;;19.27;7.60;;;0.90;99.90;;;-0.99;100.00;98747.84;4918728;28;20545;-77
2021/11/28 04:09:13;;;;;;;23.55;7.78;;;0.90;99.90;;;-0.96;100.00;98755.53;4910059;28;21059;-78
2021/11/28 04:11:47;;;;;;;19.70;7.57;;;0.90;99.90;;;-0.99;100.00;98750.44;4935333;28;20088;-79
2021/11/28 04:14:15;;;;;;;21.73;8.20;;;0.80;99.90;;;-1.00;100.00;98741.00;4935653;28;20029;-78
2021/11/28 04:16:43;;;;;;;21.42;7.63;;;0.90;99.90;;;-1.01;100.00;98736.75;4928993;28;20053;-77
2021/11/28 04:19:12;;;;;;;24.55;8.50;;;0.90;99.90;;;-1.02;100.00;98745.38;4933593;28;20482;-79
2021/11/28 04:21:42;;;;;;;24.58;9.57;;;0.90;99.90;;;-1.01;100.00;98747.94;4913251;28;20035;-78
2021/11/28 04:24:14;;;;;;;26.00;8.93;;;0.90;99.90;;;-0.98;100.00;98750.41;4915379;28;20088;-78
2021/11/28 04:26:41;;;;;;;23.02;8.35;;;0.90;99.90;;;-0.95;100.00;98752.03;4887689;28;20026;-79
2021/11/28 04:29:07;;;;;;;32.50;9.90;;;0.90;99.90;;;-0.98;100.00;98754.72;4869447;28;20097;-77
2021/11/28 04:31:34;;;;;;;27.23;9.13;;;0.90;99.90;;;-0.96;100.00;98755.53;4898883;28;20034;-78
2021/11/28 04:34:00;;;;;;;32.33;9.32;;;0.90;99.90;;;-0.95;100.00;98763.25;4938874;28;20555;-78
2021/11/28 04:36:37;;;;;;;28.23;9.05;;;0.90;99.90;;;-0.94;100.00;98762.34;4922481;28;20033;-78
2021/11/28 04:39:03;;;;;;;28.10;9.30;;;0.90;99.90;;;-0.97;100.00;98761.56;4977399;28;20533;-78
2021/11/28 04:41:32;;;;;;;36.88;10.00;;;0.90;99.90;;;-0.97;100.00;98765.03;4935866;28;20842;-77
2021/11/28 04:44:00;;;;;;;40.53;11.40;;;0.90;99.90;;;-0.90;100.00;98760.50;4923556;28;20041;-79
2021/11/28 04:46:26;;;;;;;37.03;11.27;;;0.90;99.90;;;-0.87;100.00;98773.31;4932662;28;20111;-78
2021/11/28 04:48:52;;;;;;;32.53;10.50;;;1.00;99.90;;;-0.89;100.00;98770.78;4926442;28;20080;-78
2021/11/28 04:51:18;;;;;;;32.25;10.32;;;1.00;99.90;;;-0.84;100.00;98776.66;4933882;28;20030;-78
2021/11/28 04:53:44;;;;;;;33.50;10.27;;;1.00;99.90;;;-0.72;100.00;98762.50;4923281;28;20482;-78
2021/11/28 04:56:20;;;;;;;31.27;10.32;;;1.00;99.90;;;-0.86;100.00;98773.28;4887726;28;20060;-81
2021/11/28 04:58:46;;;;;;;38.33;10.25;;;1.00;99.90;;;-0.92;100.00;98777.78;4923051;28;20043;-79
2021/11/28 05:01:15;;;;;;;42.58;11.25;;;1.00;99.90;;;-0.90;100.00;98786.34;4924007;28;20038;-78
2021/11/28 05:03:44;;;;;;;38.22;10.77;;;1.00;99.90;;;-0.84;100.00;98787.00;4960884;28;20069;-79
2021/11/28 05:06:10;;;;;;;44.58;11.85;;;1.10;99.90;;;-0.75;100.00;98793.63;4916519;28;20034;-79
2021/11/28 05:08:36;;;;;;;35.70;11.07;;;1.10;99.90;;;-0.77;100.00;98771.31;4917561;28;20066;-78
2021/11/28 05:11:02;;;;;;;32.50;11.13;;;1.10;99.90;;;-0.74;100.00;98779.78;4930030;28;20103;-77
2021/11/28 05:13:28;;;;;;;41.47;10.75;;;1.10;99.90;;;-0.78;100.00;98774.78;4894832;28;20026;-77
2021/11/28 05:15:54;;;;;;;38.17;10.38;;;1.10;99.90;;;-0.78;100.00;98791.09;4958941;28;20034;-78
2021/11/28 05:18:23;;;;;;;43.70;12.35;;;;;;;-0.85;100.00;98784.44;4946615;28;20419;-78
2021/11/28 05:20:49;;;;;;;40.97;12.15;;;1.00;99.90;;;-0.82;100.00;98779.22;4939830;28;20505;-77
2021/11/28 05:23:17;;;;;;;39.13;12.02;;;1.00;99.90;;;-0.83;100.00;98774.91;4941110;28;20172;-77
2021/11/28 05:25:43;;;;;;;35.35;11.75;;;1.00;99.90;;;-0.83;100.00;98777.50;4902061;28;20133;-77
2021/11/28 05:28:10;;;;;;;35.03;10.45;;;1.00;99.90;;;-0.81;100.00;98780.88;4937482;28;20054;-78
2021/11/28 05:30:38;;;;;;;35.05;11.98;;;1.10;99.90;;;-0.76;100.00;98780.72;4949856;28;20120;-77
2021/11/28 05:33:04;;;;;;;43.30;11.68;;;1.10;99.90;;;-0.77;100.00;98782.47;4939112;28;20105;-77
2021/11/28 05:35:30;;;;;;;33.03;11.05;;;1.10;99.90;;;-0.77;100.00;98766.97;4951952;28;20114;-77
2021/11/28 05:37:57;;;;;;;48.17;11.30;;;2.80;99.90;;;-0.73;100.00;98786.66;4939551;28;20037;-77
2021/11/28 05:40:23;;;;;;;39.47;11.70;;;1.20;99.90;;;-0.72;100.00;98788.34;4938778;28;20458;-76
2021/11/28 05:42:51;;;;;;;40.47;12.02;;;1.20;99.90;;;-0.72;100.00;98790.91;4963131;28;20044;-76
2021/11/28 05:45:20;;;;;;;39.22;11.77;;;1.20;99.90;;;-0.74;100.00;98787.53;4948864;28;20030;-76
2021/11/28 05:47:48;;;;;;;35.72;11.73;;;;;;;-0.71;100.00;98790.03;4962906;28;20121;-77
2021/11/28 05:50:16;;;;;;;39.60;10.25;;;2.60;99.90;;;-0.69;100.00;98788.25;4962641;28;20076;-77
2021/11/28 05:52:43;;;;;;;34.60;11.30;;;;;;;-0.71;100.00;98792.63;4937751;28;20071;-78
2021/11/28 05:55:10;;;;;;;37.38;11.23;;;1.20;99.90;;;-0.70;100.00;98790.88;4957592;28;20088;-77
2021/11/28 05:57:37;;;;;;;36.05;10.85;;;1.10;99.90;;;-0.69;100.00;98790.84;4932918;28;20043;-77
2021/11/28 06:00:14;;;;;;;36.13;11.15;;;1.20;99.90;;;-0.71;100.00;98799.53;4917939;28;20093;-77
2021/11/28 06:02:40;;;;;;;32.65;10.45;;;1.20;99.90;;;-0.66;100.00;98793.31;4960407;28;20092;-77
2021/11/28 06:05:08;;;;;;;38.55;11.18;;;1.30;99.90;;;-0.52;100.00;98802.38;4958072;28;20021;-77
2021/11/28 06:07:34;;;;;;;38.50;10.85;;;1.30;99.90;;;-0.54;100.00;98801.56;4932894;28;20030;-77
2021/11/28 06:10:02;;;;;;;37.40;10.75;;;1.30;99.90;;;-0.53;100.00;98796.34;4994735;28;20034;-77
2021/11/28 06:12:31;;;;;;;35.78;11.63;;;1.30;99.90;;;-0.55;100.00;98802.47;4965946;28;20046;-78
2021/11/28 06:14:57;;;;;;;37.33;11.43;;;1.30;99.90;;;-0.58;100.00;98799.97;4926122;28;20049;-77
2021/11/28 06:17:24;;;;;;;33.53;11.32;;;1.30;99.90;;;-0.60;100.00;98797.47;4982907;28;20088;-76
2021/11/28 06:19:50;;;;;;;41.03;11.82;;;1.30;99.90;;;-0.56;100.00;98809.41;4960002;28;20039;-77
2021/11/28 06:22:16;;;;;;;41.70;11.90;;;1.30;99.90;;;-0.58;100.00;98805.13;4910825;28;20042;-76
2021/11/28 06:24:47;;;;;;;34.60;10.95;;;1.30;99.90;;;-0.55;100.00;98802.47;4893477;28;20048;-77
2021/11/28 06:27:13;;;;;;;35.47;11.57;;;1.30;99.90;;;-0.58;100.00;98803.44;4900038;28;20042;-76
2021/11/28 06:29:39;;;;;;;44.67;11.90;;;1.30;99.90;;;-0.56;100.00;98800.78;4909946;28;20047;-77
2021/11/28 06:32:06;;;;;;;43.95;12.18;;;;;;;-0.58;100.00;98802.56;4947469;28;20026;-78
2021/11/28 06:34:32;;;;;;;39.67;11.52;;;1.20;99.90;;;-0.66;100.00;98798.47;4967348;28;20030;-76
2021/11/28 06:37:04;;;;;;;36.40;11.32;;;1.20;99.90;;;-0.69;100.00;98798.59;4968810;28;20084;-77
2021/11/28 06:39:30;;;;;;;38.88;11.73;;;1.20;99.90;;;-0.68;100.00;98802.03;4950635;28;20022;-77
2021/11/28 06:41:56;;;;;;;44.70;11.65;;;1.20;99.90;;;-0.68;100.00;98800.28;4939176;28;20072;-77
2021/11/28 06:44:22;;;;;;;33.70;11.18;;;1.20;99.90;;;-0.63;100.00;98807.88;4932219;28;20486;-77
2021/11/28 06:46:48;;;;;;;38.65;12.45;;;1.30;99.90;;;-0.55;100.00;98813.66;4958733;28;20591;-77
2021/11/28 06:49:14;;;;;;;34.90;12.27;;;1.30;99.90;;;-0.54;100.00;98810.19;4944257;28;20026;-76
2021/11/28 06:51:42;;;;;;;38.78;12.25;;;1.30;99.90;;;-0.53;100.00;98816.19;4919757;28;20478;-78
2021/11/28 06:54:08;;;;;;;33.13;10.48;;;1.30;99.90;;;-0.48;100.00;98814.31;4919326;28;20037;-76
2021/11/28 06:56:35;;;;;;;47.08;13.10;;;1.30;99.90;;;-0.44;100.00;98821.91;4965913;28;20025;-78
2021/11/28 06:59:01;;;;;;;40.70;12.50;;;1.30;99.90;;;-0.49;100.00;98804.88;4919449;28;20579;-76
2021/11/28 07:01:27;;;;;;;50.42;13.77;;;1.40;99.90;;;-0.47;100.00;98826.34;4971586;28;20042;-76
2021/11/28 07:03:53;;;;;;;46.90;13.85;;;1.40;99.90;;;-0.37;100.00;98819.97;4955911;28;20045;-77
2021/11/28 07:06:28;;;;;;;43.25;12.52;;;1.40;99.90;;;-0.38;100.00;98836.38;4884937;28;20038;-78
2021/11/28 07:08:54;;;;;;;40.25;12.75;;;1.40;99.90;;;-0.44;100.00;98837.41;4917686;28;20023;-76
2021/11/28 07:11:20;;;;;;;51.20;13.93;;;1.40;99.90;;;-0.45;100.00;98838.34;4915564;28;20088;-77
2021/11/28 07:13:51;;;;;;;51.88;15.55;;;1.40;99.90;;;-0.40;100.00;98840.75;4945816;28;20031;-76
2021/11/28 07:16:19;;;;;;;57.47;14.80;;;1.40;99.90;;;-0.46;100.00;98841.78;4949257;28;20419;-77
2021/11/28 07:18:45;;;;;;;62.90;15.60;;;1.40;99.90;;;-0.41;100.00;98844.25;4925078;28;20038;-77
2021/11/28 07:21:16;;;;;;;57.53;15.88;;;1.40;99.90;;;-0.32;100.00;98837.94;4920364;28;20130;-77
2021/11/28 07:23:48;;;;;;;65.00;16.13;;;1.50;99.90;;;-0.37;100.00;98851.00;4919144;28;20449;-77
2021/11/28 07:26:16;;;;;;;51.60;15.48;;;1.50;99.90;;;-0.35;100.00;98850.97;4956362;28;20026;-77
2021/11/28 07:28:48;;;;;;;63.10;15.45;;;1.50;99.90;;;-0.32;100.00;98850.88;4940442;28;20123;-77
2021/11/28 07:31:15;;;;;;;74.82;17.85;;;1.50;99.90;;;-0.32;100.00;98856.88;4958587;28;20033;-77
2021/11/28 07:33:41;;;;;;;64.90;17.00;;;1.50;99.90;;;-0.38;100.00;98849.31;4941858;28;20032;-76
2021/11/28 07:36:08;;;;;;;55.58;16.77;;;1.50;99.90;;;-0.29;100.00;98853.34;4948870;28;20024;-76
2021/11/28 07:38:35;;;;;;;57.13;16.55;;;1.50;99.90;;;-0.31;100.00;98842.22;4949242;28;20033;-77
2021/11/28 07:41:03;;;;;;;67.05;18.00;;;1.50;99.90;;;-0.35;100.00;98851.78;4945854;28;20022;-77
2021/11/28 07:43:29;;;;;;;59.50;17.17;;;1.50;99.90;;;-0.31;100.00;98837.03;4936311;28;20030;-77
2021/11/28 07:45:55;;;;;;;60.92;17.13;;;1.50;99.90;;;-0.29;100.00;98846.44;4957896;28;20022;-76
2021/11/28 07:48:22;;;;;;;72.07;19.50;;;1.50;99.90;;;-0.30;100.00;98855.09;4969180;28;20038;-76
2021/11/28 07:50:49;;;;;;;61.35;19.08;;;1.50;99.90;;;-0.28;100.00;98845.56;4947731;28;20129;-76
2021/11/28 07:53:16;;;;;;;56.70;17.98;;;1.60;99.90;;;-0.29;100.00;98851.59;4943484;28;20045;-77
2021/11/28 07:55:45;;;;;;;68.35;18.40;;;1.50;99.90;;;-0.27;100.00;98852.41;4970016;28;20060;-77
2021/11/28 07:58:12;;;;;;;69.25;17.15;;;1.60;99.90;;;-0.26;100.00;98851.53;4946913;28;20124;-76
2021/11/28 08:00:39;;;;;;;74.85;18.58;;;1.60;99.90;;;-0.18;100.00;98853.84;4949780;28;20057;-77
2021/11/28 08:03:05;;;;;;;56.53;16.83;;;;;;;-0.16;100.00;98854.63;4951208;28;20026;-77
2021/11/28 08:05:31;;;;;;;65.15;17.98;;;1.60;99.90;;;-0.18;100.00;98853.00;4907232;28;20065;-77
2021/11/28 08:07:58;;;;;;;63.95;17.45;;;1.60;99.90;;;-0.20;100.00;98845.28;4911489;28;20626;-78
2021/11/28 08:10:25;;;;;;;58.75;16.27;;;1.60;99.90;;;-0.15;100.00;98845.13;4916090;28;20046;-77
2021/11/28 08:12:51;;;;;;;58.17;17.85;;;1.70;99.90;;;-0.12;100.00;98845.03;4926484;28;20393;-77
2021/11/28 08:15:18;;;;;;;61.30;16.27;;;1.60;99.90;;;-0.14;100.00;98839.06;4938474;28;20035;-77
2021/11/28 08:17:49;;;;;;;60.30;17.65;;;1.60;99.90;;;-0.09;100.00;98842.34;4903706;28;20065;-78
2021/11/28 08:20:19;;;;;;;73.88;16.88;;;1.70;99.90;;;-0.16;100.00;98831.34;4945320;28;20114;-78
2021/11/28 08:22:46;;;;;;;61.80;16.85;;;1.60;99.90;;;-0.16;100.00;98831.34;4861509;28;20062;-77
2021/11/28 08:25:16;;;;;;;70.93;18.15;;;1.60;99.90;;;-0.19;100.00;98831.47;4959020;28;20049;-78
2021/11/28 08:27:43;;;;;;;61.85;17.73;;;1.60;99.90;;;-0.14;100.00;98828.72;4958543;28;20123;-77
2021/11/28 08:30:13;;;;;;;63.90;16.33;;;1.70;99.90;;;-0.12;100.00;98826.94;4932213;28;20552;-77
2021/11/28 08:32:41;;;;;;;60.47;17.55;;;1.70;99.90;;;-0.12;100.00;98821.75;4946088;28;20456;-76
2021/11/28 08:35:12;;;;;;;60.55;17.27;;;1.70;99.90;;;-0.10;100.00;98831.16;4925874;28;20106;-76
2021/11/28 08:37:38;;;;;;;60.42;17.98;;;1.70;99.90;;;-0.07;100.00;98831.03;4954847;28;20414;-76
2021/11/28 08:40:08;;;;;;;61.85;17.83;;;;;;;-0.06;100.00;98826.72;4974082;28;20109;-77
2021/11/28 08:42:35;;;;;;;58.80;17.52;;;1.70;99.90;;;-0.01;100.00;98828.25;4970242;28;20129;-77
2021/11/28 08:45:06;;;;;;;70.25;18.10;;;1.80;99.90;;;0.05;100.00;98832.38;4957591;28;20486;-77
2021/11/28 08:47:33;;;;;;;64.95;18.13;;;1.80;99.90;;;0.05;100.00;98828.97;4965136;28;20073;-77
2021/11/28 08:50:00;;;;;;;71.07;19.27;;;1.90;99.90;;;0.11;100.00;98828.72;4973636;28;20030;-77
2021/11/28 08:52:26;;;;;;;74.20;18.35;;;2.60;99.90;;;0.22;100.00;98837.00;4951306;28;20056;-78
2021/11/28 08:54:53;;;;;;;61.75;17.75;;;2.00;99.90;;;0.24;100.00;98829.16;4958304;28;20026;-77
2021/11/28 08:57:19;;;;;;;72.72;18.52;;;2.10;99.90;;;0.30;100.00;98840.16;4954954;28;20073;-78
2021/11/28 08:59:45;;;;;;;55.40;16.45;;;2.10;99.90;;;0.32;100.00;98842.69;4940995;28;20033;-78
2021/11/28 09:02:11;;;;;;;51.33;17.77;;;2.10;99.90;;;0.27;100.00;98829.91;4960662;28;20037;-78
2021/11/28 09:04:38;;;;;;;63.72;17.92;;;2.10;99.90;;;0.23;100.00;98828.31;4985946;28;20298;-78
2021/11/28 09:07:12;;;;;;;58.72;16.83;;;2.00;99.90;;;0.19;100.00;98834.50;4974011;28;20026;-78
2021/11/28 09:09:41;;;;;;;62.60;16.52;;;2.00;99.90;;;0.18;100.00;98833.66;4953891;28;20036;-78
2021/11/28 09:12:08;;;;;;;69.00;17.95;;;2.00;99.90;;;0.24;100.00;98835.19;4988314;28;20022;-77
2021/11/28 09:14:34;;;;;;;55.75;16.08;;;2.00;99.90;;;0.22;100.00;98839.59;4964499;28;20505;-77
2021/11/28 09:17:03;;;;;;;61.00;16.13;;;2.10;99.90;;;0.24;100.00;98835.19;4952953;28;20060;-77
2021/11/28 09:19:41;;;;;;;54.55;16.58;;;2.10;99.90;;;0.33;100.00;98823.66;4927464;28;20117;-77
2021/11/28 09:22:10;;;;;;;57.05;17.13;;;2.10;99.90;;;0.32;100.00;98822.81;4928307;28;20397;-78
2021/11/28 09:24:40;;;;;;;53.67;16.85;;;2.10;99.90;;;0.34;100.00;98833.94;4927702;28;20114;-78
2021/11/28 09:27:13;;;;;;;64.53;17.20;;;2.10;99.90;;;0.31;100.00;98820.28;4920113;28;20065;-77
2021/11/28 09:29:46;;;;;;;61.83;20.10;;;2.10;99.90;;;0.28;100.00;98812.63;4935295;28;20028;-79
2021/11/28 09:32:16;;;;;;;59.97;18.17;;;2.10;99.90;;;0.33;100.00;98821.09;4985498;28;20030;-78
2021/11/28 09:34:43;;;;;;;58.20;16.25;;;2.10;99.90;;;0.34;100.00;98820.16;4967699;28;20034;-78
2021/11/28 09:37:14;;;;;;;60.17;17.00;;;2.10;99.90;;;0.44;100.00;98826.72;4976408;28;20038;-77
2021/11/28 09:39:45;;;;;;;67.60;16.83;;;2.20;99.90;;;0.40;100.00;98825.13;4910099;28;20030;-77
2021/11/28 09:42:19;;;;;;;70.80;20.00;;;2.20;99.90;;;0.37;100.00;98818.31;4932664;28;20039;-77
2021/11/28 09:44:47;;;;;;;135.13;44.20;;;2.20;99.90;;;0.36;100.00;98808.00;4963493;28;20060;-78
2021/11/28 09:47:17;;;;;;;81.40;25.05;;;2.10;99.90;;;0.37;100.00;98810.56;4936463;28;20107;-78
2021/11/28 09:49:45;;;;;;;83.88;23.60;;;2.20;99.90;;;0.36;100.00;98811.44;4940609;28;20481;-77
2021/11/28 09:52:19;;;;;;;102.13;29.42;;;2.10;99.90;;;0.35;100.00;98821.88;4968020;28;20108;-76
2021/11/28 09:54:47;;;;;;;137.55;36.42;;;2.10;99.90;;;0.41;100.00;98813.88;4948631;28;20038;-76
2021/11/28 09:57:19;;;;;;;64.15;19.65;;;2.20;99.90;;;0.40;100.00;98814.78;4960535;28;20583;-77
2021/11/28 09:59:54;;;;;;;74.03;17.95;;;2.20;99.90;;;0.36;100.00;98808.00;4933116;28;20035;-77
2021/11/28 10:02:25;;;;;;;68.43;19.13;;;2.20;99.90;;;0.41;100.00;98803.50;4960639;28;20440;-78
2021/11/28 10:04:54;;;;;;;54.58;15.95;;;2.20;99.90;;;0.48;100.00;98797.22;4906460;28;20051;-77
2021/11/28 10:07:26;;;;;;;74.93;17.13;;;2.30;99.90;;;0.50;100.00;98779.88;4887117;28;20043;-77
2021/11/28 10:09:59;;;;;;;79.13;22.75;;;2.20;99.90;;;0.39;100.00;98797.56;4877500;28;20110;-78
2021/11/28 10:12:40;;;;;;;57.45;16.55;;;2.20;99.90;;;0.39;100.00;98800.16;4977772;28;20036;-77
2021/11/28 10:15:17;;;;;;;61.83;17.73;;;2.20;99.90;;;0.37;100.00;98802.78;4954264;28;20045;-78
2021/11/28 10:17:52;;;;;;;68.60;16.77;;;2.20;99.90;;;0.35;100.00;98798.56;4933178;28;20053;-77
2021/11/28 10:20:31;;;;;;;64.43;17.63;;;2.20;99.90;;;0.41;100.00;98800.91;4966613;28;20034;-77
2021/11/28 10:23:02;;;;;;;71.95;18.88;;;2.30;99.90;;;0.45;100.00;98799.91;4939432;28;20125;-77
2021/11/28 10:25:37;;;;;;;61.08;16.50;;;2.30;99.90;;;0.42;100.00;98796.59;4935680;28;20026;-77
2021/11/28 10:28:14;;;;;;;59.67;16.35;;;2.20;99.90;;;0.38;100.00;98796.69;4950420;28;20033;-77